Time;durP1;ratioP1;P1;durP2;ratioP2;P2;SDS_P1;SDS_P2;PMS_P1;PMS_P2;Temp;Humidity;BMP_temperature;BMP_pressure;BME280_temperature;BME280_humidity;BME280_pressure;Samples;Min_cycle;Max_cycle;Signal;HPM_P1;HPM_P2
2023/01/05 00:00:47;;;;;;;;;;;;;;;16.79;58.23;101648.44;7249905;19;153584;-57
2023/01/05 00:03:14;;;;;;;;;;;;;;;16.79;58.01;101654.03;7246690;19;153594;-57
2023/01/05 00:05:41;;;;;;;;;;;;;;;16.79;58.14;101659.63;7247579;19;154804;-57
2023/01/05 00:08:08;;;;;;;;;;;;;;;16.78;58.06;101666.28;7249172;19;153621;-57
2023/01/05 00:23:12;;;;;;;;;;;;;;;16.74;58.01;101660.41;7246355;19;154448;-58
2023/01/05 00:25:39;;;;;;;;;;;;;;;16.74;58.01;101667.94;7248320;19;156169;-57
2023/01/05 00:28:07;;;;;;;;;;;;;;;16.73;58.02;101669.88;7248680;19;154359;-62
2023/01/05 00:30:38;;;;;;;;;;;;;;;16.72;58.14;101675.72;7252727;19;153975;-57
2023/01/05 00:33:07;;;;;;;;;;;;;;;16.73;57.92;101674.63;7250274;19;155368;-57
2023/01/05 00:35:34;;;;;;;;;;;;;;;16.71;58.13;101679.63;7254926;19;153958;-58
2023/01/05 00:38:01;;;;;;;;;;;;;;;16.70;58.16;101667.63;7254740;19;153624;-57
2023/01/05 00:40:28;;;;;;;;;;;;;;;16.71;57.97;101665.69;7255690;19;153919;-57
2023/01/05 00:42:55;;;;;;;;;;;;;;;16.70;57.83;101666.78;7266654;19;154027;-57
2023/01/05 00:45:22;;;;;;;;;;;;;;;16.69;58.16;101662.31;7253651;19;155147;-58
2023/01/05 00:47:52;;;;;;;;;;;;;;;16.68;58.07;101671.78;7256288;19;152345;-57
2023/01/05 00:50:20;;;;;;;;;;;;;;;16.67;57.75;101665.34;7251770;19;154826;-57
2023/01/05 00:52:47;;;;;;;;;;;;;;;16.68;57.66;101674.56;7251479;19;153712;-57
2023/01/05 00:55:15;;;;;;;;;;;;;;;16.68;57.73;101680.16;7254117;19;153683;-57
2023/01/05 00:57:42;;;;;;;;;;;;;;;16.67;57.96;101689.66;7254506;19;153311;-57
2023/01/05 01:00:11;;;;;;;;;;;;;;;16.65;57.92;101664.78;7250812;19;155111;-57
2023/01/05 01:02:38;;;;;;;;;;;;;;;16.65;57.64;101678.75;7253107;19;152998;-57
2023/01/05 01:05:06;;;;;;;;;;;;;;;16.64;57.89;101670.63;7261146;19;153611;-57
2023/01/05 01:07:33;;;;;;;;;;;;;;;16.64;57.82;101687.38;7252355;19;153217;-57
2023/01/05 01:10:00;;;;;;;;;;;;;;;16.64;57.90;101676.19;7254204;19;153611;-57
2023/01/05 01:12:27;;;;;;;;;;;;;;;16.64;58.14;101676.19;7251479;19;153270;-57
2023/01/05 01:14:54;;;;;;;;;;;;;;;16.63;58.11;101683.72;7257294;19;154055;-57
2023/01/05 01:17:21;;;;;;;;;;;;;;;16.64;57.72;101692.94;7254387;19;152489;-57
2023/01/05 01:19:48;;;;;;;;;;;;;;;16.61;57.78;101680.38;7252506;19;153924;-57
2023/01/05 01:22:15;;;;;;;;;;;;;;;16.61;57.75;101683.16;7246798;19;154119;-57
2023/01/05 01:24:42;;;;;;;;;;;;;;;16.61;58.23;101688.75;7253863;19;153736;-57
2023/01/05 01:27:09;;;;;;;;;;;;;;;16.61;57.81;101696.28;7258776;19;154255;-57
2023/01/05 01:29:36;;;;;;;;;;;;;;;16.61;58.14;101704.63;7253487;19;153676;-57
2023/01/05 01:32:04;;;;;;;;;;;;;;;16.60;58.20;101706.59;7252602;19;154468;-57
2023/01/05 01:34:31;;;;;;;;;;;;;;;16.60;58.01;101711.31;7252280;19;154904;-57
2023/01/05 01:36:59;;;;;;;;;;;;;;;16.58;57.94;101714.38;7249638;19;152589;-58
2023/01/05 01:39:26;;;;;;;;;;;;;;;16.58;58.27;101728.31;7249657;19;153288;-57
2023/01/05 01:41:53;;;;;;;;;;;;;;;16.58;58.20;101713.53;7249320;19;154264;-57
2023/01/05 01:44:23;;;;;;;;;;;;;;;16.58;57.99;101724.72;7254242;19;154402;-57
2023/01/05 01:46:50;;;;;;;;;;;;;;;16.56;58.01;101724.06;7252095;19;154728;-57
2023/01/05 01:49:17;;;;;;;;;;;;;;;16.56;57.97;101722.13;7261040;19;154615;-58
2023/01/05 01:51:46;;;;;;;;;;;;;;;16.56;58.34;101722.13;7248526;19;152557;-57
2023/01/05 01:54:16;;;;;;;;;;;;;;;16.55;58.26;101728.81;7252544;19;154899;-57
2023/01/05 01:56:46;;;;;;;;;;;;;;;16.55;58.10;101725.19;7254089;19;153370;-57
2023/01/05 01:59:14;;;;;;;;;;;;;;;16.53;58.40;101728.25;7252095;19;153897;-57
2023/01/05 02:01:41;;;;;;;;;;;;;;;16.54;58.25;101729.91;7252430;19;154034;-58
2023/01/05 02:04:09;;;;;;;;;;;;;;;16.54;58.38;101734.66;7254560;19;153725;-57
2023/01/05 02:06:37;;;;;;;;;;;;;;;16.54;58.21;101732.69;7249418;19;153970;-58
2023/01/05 02:09:05;;;;;;;;;;;;;;;16.54;58.05;101735.50;7259578;19;152532;-57
2023/01/05 02:11:39;;;;;;;;;;;;;;;16.54;58.29;101737.44;7250585;19;154380;-57
2023/01/05 02:14:09;;;;;;;;;;;;;;;16.54;58.07;101751.38;7250446;19;153554;-57
2023/01/05 02:16:38;;;;;;;;;;;;;;;16.53;58.14;101738.56;7247671;19;152712;-58
2023/01/05 02:19:08;;;;;;;;;;;;;;;16.53;58.26;101735.78;7250495;19;154436;-57
2023/01/05 02:21:36;;;;;;;;;;;;;;;16.53;57.93;101735.78;7249170;19;153169;-57
2023/01/05 02:24:06;;;;;;;;;;;;;;;16.53;58.26;101750.56;7253258;19;154157;-57
2023/01/05 02:26:37;;;;;;;;;;;;;;;16.53;58.32;101741.34;7252202;19;155387;-57
2023/01/05 02:29:07;;;;;;;;;;;;;;;16.52;58.23;101734.06;7251345;19;153290;-57
2023/01/05 02:31:38;;;;;;;;;;;;;;;16.52;58.29;101731.28;7257785;19;154414;-57
2023/01/05 02:34:07;;;;;;;;;;;;;;;16.52;57.88;101736.88;7250131;19;153211;-57
2023/01/05 02:36:41;;;;;;;;;;;;;;;16.51;58.18;101729.59;7250306;19;154148;-57
2023/01/05 02:39:13;;;;;;;;;;;;;;;16.50;58.04;101734.34;7251393;19;153844;-57
2023/01/05 02:41:46;;;;;;;;;;;;;;;16.49;58.19;101746.59;7250491;19;153482;-58
2023/01/05 02:44:15;;;;;;;;;;;;;;;16.49;57.94;101745.78;7251670;19;154122;-57
2023/01/05 02:46:42;;;;;;;;;;;;;;;16.50;58.07;101753.84;7251319;19;155552;-57
2023/01/05 02:49:09;;;;;;;;;;;;;;;16.49;58.37;101748.56;7251720;19;153427;-58
2023/01/05 02:51:40;;;;;;;;;;;;;;;16.49;58.03;101760.53;7245157;19;154465;-57
2023/01/05 02:54:13;;;;;;;;;;;;;;;16.49;58.21;101759.72;7254691;19;154278;-58
2023/01/05 02:56:43;;;;;;;;;;;;;;;16.49;58.23;101768.09;7250951;19;152879;-58
2023/01/05 02:59:15;;;;;;;;;;;;;;;16.48;58.04;101764.44;7249217;19;154773;-57
2023/01/05 03:01:46;;;;;;;;;;;;;;;16.49;58.00;101768.09;7249965;19;152872;-57
2023/01/05 03:04:20;;;;;;;;;;;;;;;16.48;58.35;101763.59;7253319;19;153689;-58
2023/01/05 03:06:47;;;;;;;;;;;;;;;16.48;58.44;101771.97;7246319;19;154094;-57
2023/01/05 03:09:16;;;;;;;;;;;;;;;16.47;57.94;101762.75;7249881;19;153771;-57
2023/01/05 03:14:20;;;;;;;;;;;;;;;16.46;58.18;101781.44;7246301;19;154677;-57
2023/01/05 03:16:48;;;;;;;;;;;;;;;16.46;57.96;101777.81;7257412;19;156642;-57
2023/01/05 03:36:56;;;;;;;;;;;;;;;16.44;58.26;101772.47;7246372;19;153544;-57
2023/01/05 03:39:26;;;;;;;;;;;;;;;16.44;58.21;101771.66;7256757;19;153504;-57
2023/01/05 03:41:53;;;;;;;;;;;;;;;16.45;58.21;101770.53;7248814;19;153119;-57
2023/01/05 03:44:20;;;;;;;;;;;;;;;16.43;58.12;101784.75;7250450;19;154529;-57
2023/01/05 03:46:47;;;;;;;;;;;;;;;16.44;58.33;101771.66;7245656;19;154440;-57
2023/01/05 03:49:16;;;;;;;;;;;;;;;16.44;58.42;101777.25;7251253;19;153020;-57
2023/01/05 03:51:43;;;;;;;;;;;;;;;16.43;57.99;101779.19;7244979;19;154060;-57
2023/01/05 03:54:10;;;;;;;;;;;;;;;16.43;58.17;101787.53;7246074;19;152909;-58
2023/01/05 03:56:38;;;;;;;;;;;;;;;16.43;58.32;101775.53;7245860;19;153432;-57
2023/01/05 03:59:05;;;;;;;;;;;;;;;16.43;58.29;101775.53;7250958;19;153193;-57
2023/01/05 04:01:32;;;;;;;;;;;;;;;16.41;58.42;101770.22;7253619;19;152312;-57
2023/01/05 04:03:59;;;;;;;;;;;;;;;16.42;58.30;101782.22;7251855;19;153626;-57
2023/01/05 04:06:26;;;;;;;;;;;;;;;16.41;58.30;101778.59;7251942;19;155327;-57
2023/01/05 04:08:53;;;;;;;;;;;;;;;16.41;58.40;101784.16;7257421;19;152890;-57
2023/01/05 04:11:21;;;;;;;;;;;;;;;16.41;58.03;101792.53;7255107;19;153816;-57
2023/01/05 04:13:48;;;;;;;;;;;;;;;16.41;58.32;101797.25;7255954;19;153833;-57
2023/01/05 04:16:16;;;;;;;;;;;;;;;16.40;58.09;101799.19;7257034;19;154593;-57
2023/01/05 04:18:43;;;;;;;;;;;;;;;16.40;58.32;101788.03;7256035;19;152143;-58
2023/01/05 04:21:10;;;;;;;;;;;;;;;16.40;58.57;101799.19;7258591;19;154224;-58
2023/01/05 04:23:37;;;;;;;;;;;;;;;16.41;58.22;101800.03;7250461;19;152732;-57
2023/01/05 04:26:05;;;;;;;;;;;;;;;16.40;58.17;101798.34;7255395;19;153722;-57
2023/01/05 04:28:32;;;;;;;;;;;;;;;16.41;58.23;101809.25;7257231;19;153284;-57
2023/01/05 04:30:59;;;;;;;;;;;;;;;16.40;58.23;101810.34;7253682;19;154000;-57
2023/01/05 04:33:26;;;;;;;;;;;;;;;16.39;58.50;101814.28;7253689;19;153335;-57
2023/01/05 04:35:53;;;;;;;;;;;;;;;16.40;58.38;101824.31;7251003;19;153484;-58
2023/01/05 04:38:20;;;;;;;;;;;;;;;16.40;58.55;101815.09;7255342;19;153939;-57
2023/01/05 04:40:48;;;;;;;;;;;;;;;16.39;58.13;101819.84;7251051;19;153691;-57
2023/01/05 04:43:15;;;;;;;;;;;;;;;16.38;58.13;101815.38;7263222;19;153808;-57
2023/01/05 04:45:44;;;;;;;;;;;;;;;16.39;58.40;101816.22;7253556;19;153005;-57
2023/01/05 04:48:11;;;;;;;;;;;;;;;16.39;58.43;101819.00;7254466;19;154281;-57
2023/01/05 04:50:38;;;;;;;;;;;;;;;16.37;58.30;101810.88;7252081;19;152955;-57
2023/01/05 04:53:06;;;;;;;;;;;;;;;16.37;58.33;101818.41;7251497;19;154221;-57
2023/01/05 04:55:33;;;;;;;;;;;;;;;16.37;58.29;101810.03;7250817;19;154232;-57
2023/01/05 04:58:00;;;;;;;;;;;;;;;16.38;58.18;101820.09;7255325;19;152793;-57
2023/01/05 05:00:32;;;;;;;;;;;;;;;16.37;58.18;101810.88;7252947;19;154345;-57
2023/01/05 05:03:01;;;;;;;;;;;;;;;16.37;58.27;101812.81;7255239;19;153313;-57
2023/01/05 05:05:28;;;;;;;;;;;;;;;16.37;58.14;101816.47;7259471;19;154153;-58
2023/01/05 05:07:55;;;;;;;;;;;;;;;16.36;58.19;101809.19;7252854;19;153967;-57
2023/01/05 05:10:22;;;;;;;;;;;;;;;16.36;58.05;101811.97;7254078;19;154134;-57
2023/01/05 05:12:49;;;;;;;;;;;;;;;16.37;58.20;101813.66;7251510;19;153964;-57
2023/01/05 05:15:16;;;;;;;;;;;;;;;16.36;58.14;101805.56;7249579;19;153471;-58
2023/01/05 05:17:43;;;;;;;;;;;;;;;16.35;58.16;101809.47;7251586;19;154838;-57
2023/01/05 05:20:11;;;;;;;;;;;;;;;16.35;58.25;101824.22;7252505;19;154009;-57
2023/01/05 05:22:38;;;;;;;;;;;;;;;16.35;58.37;101812.25;7252084;19;153365;-57
2023/01/05 05:25:05;;;;;;;;;;;;;;;16.35;58.08;101815.88;7252828;19;153555;-57
2023/01/05 05:27:32;;;;;;;;;;;;;;;16.34;58.30;101817.00;7258721;19;153751;-57
2023/01/05 05:29:59;;;;;;;;;;;;;;;16.34;58.38;101819.78;7253801;19;153413;-57
2023/01/05 05:32:26;;;;;;;;;;;;;;;16.34;58.15;101821.72;7252911;19;153762;-57
2023/01/05 05:34:53;;;;;;;;;;;;;;;16.35;58.33;101824.22;7252280;19;152038;-57
2023/01/05 05:37:20;;;;;;;;;;;;;;;16.35;58.38;101820.63;7250087;19;154667;-57
2023/01/05 05:39:47;;;;;;;;;;;;;;;16.34;58.50;101824.50;7252057;19;156114;-59
2023/01/05 05:42:15;;;;;;;;;;;;;;;16.34;58.42;101825.34;7253153;19;152290;-59
2023/01/05 05:44:42;;;;;;;;;;;;;;;16.33;58.37;101826.44;7253447;19;152950;-59
2023/01/05 05:47:09;;;;;;;;;;;;;;;16.34;58.21;101825.34;7251128;19;154212;-59
2023/01/05 05:49:36;;;;;;;;;;;;;;;16.33;58.25;101826.44;7260138;19;153890;-59
2023/01/05 05:52:03;;;;;;;;;;;;;;;16.32;58.18;101827.53;7248887;19;154224;-59
2023/01/05 05:54:30;;;;;;;;;;;;;;;16.33;58.05;101817.25;7251601;19;152992;-59
2023/01/05 05:56:57;;;;;;;;;;;;;;;16.33;58.42;101825.59;7253134;19;154960;-62
2023/01/05 05:59:24;;;;;;;;;;;;;;;16.33;58.36;101831.19;7251999;19;154415;-59
2023/01/05 06:01:51;;;;;;;;;;;;;;;16.31;58.49;101828.63;7253293;19;153677;-59
2023/01/05 06:04:18;;;;;;;;;;;;;;;16.32;58.20;101824.75;7253574;19;154058;-59
2023/01/05 06:06:46;;;;;;;;;;;;;;;16.32;58.10;101829.50;7249452;19;154779;-59
2023/01/05 06:09:13;;;;;;;;;;;;;;;16.33;58.35;101831.19;7260159;19;153111;-59
2023/01/05 06:11:40;;;;;;;;;;;;;;;16.32;58.34;101826.69;7251057;19;155335;-59
2023/01/05 06:14:07;;;;;;;;;;;;;;;16.31;58.15;101831.44;7252464;19;154612;-59
2023/01/05 06:16:34;;;;;;;;;;;;;;;16.31;58.37;101830.59;7249777;19;152599;-59
2023/01/05 06:19:02;;;;;;;;;;;;;;;16.31;58.16;101830.59;7251719;19;153762;-59
2023/01/05 06:21:29;;;;;;;;;;;;;;;16.29;58.26;101832.81;7249119;19;153806;-59
2023/01/05 06:23:56;;;;;;;;;;;;;;;16.31;58.21;101836.16;7251550;19;152383;-58
2023/01/05 06:26:23;;;;;;;;;;;;;;;16.29;58.10;101828.06;7250885;19;154100;-58
2023/01/05 06:28:50;;;;;;;;;;;;;;;16.30;58.19;101840.06;7252226;19;154640;-58
2023/01/05 06:31:17;;;;;;;;;;;;;;;16.30;58.55;101835.34;7259811;19;153419;-58
2023/01/05 06:33:44;;;;;;;;;;;;;;;16.30;58.52;101832.56;7253590;19;154166;-58
2023/01/05 06:36:11;;;;;;;;;;;;;;;16.29;58.53;101830.88;7248870;19;153034;-58
2023/01/05 06:38:38;;;;;;;;;;;;;;;16.29;58.32;101825.28;7249617;19;154378;-57
2023/01/05 06:41:05;;;;;;;;;;;;;;;16.29;58.29;101825.28;7252797;19;153325;-57
2023/01/05 06:43:32;;;;;;;;;;;;;;;16.29;58.20;101824.44;7249532;19;154075;-58
2023/01/05 06:45:59;;;;;;;;;;;;;;;16.28;58.62;101823.59;7251886;19;154611;-57
2023/01/05 06:48:26;;;;;;;;;;;;;;;16.28;58.60;101823.59;7252020;19;153284;-58
2023/01/05 06:50:54;;;;;;;;;;;;;;;16.28;58.30;101826.38;7248187;19;154132;-57
2023/01/05 06:53:21;;;;;;;;;;;;;;;16.29;58.54;101824.44;7257003;19;154710;-57
2023/01/05 06:55:48;;;;;;;;;;;;;;;16.28;58.49;101826.38;7250402;19;154324;-57
2023/01/05 06:58:15;;;;;;;;;;;;;;;16.29;58.42;101827.22;7249847;19;153534;-57
2023/01/05 07:00:42;;;;;;;;;;;;;;;16.28;58.51;101820.81;7251031;19;153277;-57
2023/01/05 07:03:12;;;;;;;;;;;;;;;16.27;58.30;101821.91;7251889;19;154199;-57
2023/01/05 07:05:39;;;;;;;;;;;;;;;16.27;58.64;101824.69;7247138;19;154581;-57
2023/01/05 07:08:07;;;;;;;;;;;;;;;16.28;58.52;101822.75;7250850;19;154139;-57
2023/01/05 07:10:34;;;;;;;;;;;;;;;16.27;58.71;101821.91;7250129;19;152898;-57
2023/01/05 07:13:01;;;;;;;;;;;;;;;16.27;58.32;101821.91;7247304;19;154246;-57
2023/01/05 07:15:28;;;;;;;;;;;;;;;16.27;58.45;101821.06;7256020;19;153662;-57
2023/01/05 07:17:55;;;;;;;;;;;;;;;16.26;58.50;101828.56;7249246;19;155824;-57
2023/01/05 07:20:23;;;;;;;;;;;;;;;16.26;58.48;101819.38;7249619;19;154122;-57
2023/01/05 07:22:50;;;;;;;;;;;;;;;16.26;58.67;101823.00;7249450;19;154038;-58
2023/01/05 07:25:17;;;;;;;;;;;;;;;16.26;58.70;101823.00;7249983;19;155828;-57
2023/01/05 07:27:48;;;;;;;;;;;;;;;16.27;58.53;101821.06;7251713;19;153210;-57
2023/01/05 07:30:15;;;;;;;;;;;;;;;16.27;58.59;101824.69;7247590;19;154028;-57
2023/01/05 07:32:43;;;;;;;;;;;;;;;16.27;58.50;101826.63;7247845;19;154200;-57
2023/01/05 07:35:10;;;;;;;;;;;;;;;16.25;58.26;101824.13;7248141;19;153612;-57
2023/01/05 07:37:37;;;;;;;;;;;;;;;16.26;58.64;101820.19;7255090;19;154381;-57
2023/01/05 07:40:04;;;;;;;;;;;;;;;16.26;58.47;101827.75;7261825;19;152993;-57
2023/01/05 07:42:31;;;;;;;;;;;;;;;16.25;58.67;101814.91;7264919;19;152512;-57
2023/01/05 07:44:59;;;;;;;;;;;;;;;16.25;58.50;101818.53;7260321;19;153845;-57
2023/01/05 07:47:26;;;;;;;;;;;;;;;16.25;58.82;101826.91;7263611;19;154425;-57
2023/01/05 07:49:53;;;;;;;;;;;;;;;16.25;58.74;101826.91;7264020;19;153127;-57
2023/01/05 07:52:20;;;;;;;;;;;;;;;16.26;59.05;101833.34;7257940;19;153949;-57
2023/01/05 07:54:48;;;;;;;;;;;;;;;16.28;58.72;101825.53;7262723;19;153525;-57
2023/01/05 07:57:15;;;;;;;;;;;;;;;16.31;58.99;101813.84;7263260;19;154091;-57
2023/01/05 07:59:42;;;;;;;;;;;;;;;16.36;59.06;101817.56;7267654;19;154034;-57
2023/01/05 08:02:09;;;;;;;;;;;;;;;16.42;59.08;101810.09;7263912;19;154183;-57
2023/01/05 08:04:37;;;;;;;;;;;;;;;16.49;59.42;101819.09;7258167;19;155213;-57
2023/01/05 08:07:08;;;;;;;;;;;;;;;16.54;59.66;101819.16;7260375;19;151951;-57
2023/01/05 08:12:08;;;;;;;;;;;;;;;16.65;59.73;101822.97;7261731;19;154843;-57
2023/01/05 08:14:35;;;;;;;;;;;;;;;16.69;59.69;101808.25;7263522;19;152584;-57
2023/01/05 08:17:02;;;;;;;;;;;;;;;16.74;59.20;101807.44;7259627;19;153535;-57
2023/01/05 08:19:29;;;;;;;;;;;;;;;16.79;59.10;101799.13;7269845;19;154873;-57
2023/01/05 08:21:56;;;;;;;;;;;;;;;16.82;59.09;101810.63;7260047;19;153461;-57
2023/01/05 08:24:23;;;;;;;;;;;;;;;16.86;59.29;101813.72;7259890;19;153853;-57
2023/01/05 08:26:50;;;;;;;;;;;;;;;16.89;59.22;101802.91;7262138;19;154577;-58
2023/01/05 08:29:17;;;;;;;;;;;;;;;16.92;58.98;101803.44;7262176;19;153664;-57
2023/01/05 08:31:47;;;;;;;;;;;;;;;16.96;58.82;101807.41;7261522;19;154243;-57
2023/01/05 08:34:14;;;;;;;;;;;;;;;16.99;58.80;101804.09;7262645;19;153932;-57
2023/01/05 08:36:41;;;;;;;;;;;;;;;17.02;58.90;101797.97;7256372;19;155853;-57
2023/01/05 08:39:09;;;;;;;;;;;;;;;17.04;58.63;101791.00;7262436;19;153736;-57
2023/01/05 08:41:37;;;;;;;;;;;;;;;17.07;58.71;101801.69;7268857;19;153513;-57
2023/01/05 08:44:05;;;;;;;;;;;;;;;17.09;58.79;101798.59;7261315;19;154350;-57
2023/01/05 08:46:34;;;;;;;;;;;;;;;17.11;58.34;101805.63;7262482;19;154113;-57
2023/01/05 08:49:03;;;;;;;;;;;;;;;17.12;58.33;101812.91;7264611;19;153847;-58
2023/01/05 08:51:30;;;;;;;;;;;;;;;17.15;58.13;101817.94;7251085;19;153192;-57
2023/01/05 08:53:58;;;;;;;;;;;;;;;17.17;58.19;101817.69;7255360;19;155722;-58
2023/01/05 08:56:26;;;;;;;;;;;;;;;17.18;58.05;101820.19;7251707;19;155182;-58
2023/01/05 08:59:00;;;;;;;;;;;;;;;17.19;58.33;101816.31;7256449;19;153580;-58
2023/01/05 09:01:27;;;;;;;;;;;;;;;17.20;58.07;101812.41;7255335;19;154252;-58
2023/01/05 09:03:54;;;;;;;;;;;;;;;17.21;58.29;101819.69;7262517;19;154154;-57
2023/01/05 09:06:21;;;;;;;;;;;;;;;17.23;58.39;101825.84;7250132;19;153324;-58
2023/01/05 09:08:48;;;;;;;;;;;;;;;17.24;58.27;101804.34;7252438;19;154576;-57
2023/01/05 09:11:17;;;;;;;;;;;;;;;17.26;57.95;101807.72;7252749;19;153158;-57
2023/01/05 09:13:46;;;;;;;;;;;;;;;17.26;57.97;101802.94;7254619;19;153793;-57
2023/01/05 09:16:14;;;;;;;;;;;;;;;17.27;57.90;101801.00;7254158;19;158851;-57
2023/01/05 09:19:03;;;;;;;;;;;;;;;17.26;58.12;101797.38;7253585;19;153966;-58
2023/01/05 09:21:30;;;;;;;;;;;;;;;17.28;57.77;101802.69;7252411;19;154053;-57
2023/01/05 09:23:57;;;;;;;;;;;;;;;17.28;57.92;101808.28;7254527;19;153048;-57
2023/01/05 09:26:25;;;;;;;;;;;;;;;17.28;58.18;101813.88;7260489;19;153329;-57
2023/01/05 09:28:52;;;;;;;;;;;;;;;17.27;57.83;101801.00;7253983;19;156439;-57
2023/01/05 09:31:20;;;;;;;;;;;;;;;17.28;58.04;101799.91;7253478;19;155655;-57
2023/01/05 09:33:47;;;;;;;;;;;;;;;17.27;57.85;101799.06;7253583;19;152009;-57
2023/01/05 09:36:16;;;;;;;;;;;;;;;17.28;58.25;101805.47;7249327;19;154991;-57
2023/01/05 09:38:47;;;;;;;;;;;;;;;17.28;57.95;101792.38;7251059;19;154659;-57
2023/01/05 09:41:20;;;;;;;;;;;;;;;17.28;58.08;101786.78;7253578;19;152816;-58
2023/01/05 09:43:49;;;;;;;;;;;;;;;17.28;58.27;101789.56;7253133;19;153551;-57
2023/01/05 09:46:19;;;;;;;;;;;;;;;17.29;58.21;101784.84;7253762;19;154086;-57
2023/01/05 09:48:48;;;;;;;;;;;;;;;17.29;58.02;101791.25;7259644;19;152293;-57
2023/01/05 09:51:15;;;;;;;;;;;;;;;17.29;57.96;101788.47;7250357;19;154064;-57
2023/01/05 09:53:42;;;;;;;;;;;;;;;17.30;58.18;101789.31;7250807;19;153843;-57
2023/01/05 09:56:18;;;;;;;;;;;;;;;17.31;58.20;101782.59;7250423;19;153413;-57
2023/01/05 09:59:09;;;;;;;;;;;;;;;17.30;58.16;101778.16;7253659;19;154995;-57
2023/01/05 10:01:37;;;;;;;;;;;;;;;17.31;58.07;101768.63;7249685;19;152562;-57
2023/01/05 10:04:08;;;;;;;;;;;;;;;17.31;57.84;101771.44;7255285;19;155255;-57
2023/01/05 10:06:37;;;;;;;;;;;;;;;17.31;57.84;101769.47;7252821;19;153435;-57
2023/01/05 10:09:06;;;;;;;;;;;;;;;17.32;57.95;101784.28;7254332;19;153234;-57
2023/01/05 10:14:11;;;;;;;;;;;;;;;17.31;57.84;101782.59;7255637;19;153191;-57
2023/01/05 10:16:42;;;;;;;;;;;;;;;17.31;57.94;101786.25;7252592;19;155541;-57
2023/01/05 10:19:13;;;;;;;;;;;;;;;17.31;58.11;101783.44;7250988;19;156097;-57
2023/01/05 10:21:41;;;;;;;;;;;;;;;17.31;57.98;101786.25;7248735;19;154154;-57
2023/01/05 10:24:08;;;;;;;;;;;;;;;17.32;58.22;101801.06;7250560;19;154661;-57
2023/01/05 10:26:37;;;;;;;;;;;;;;;17.32;58.06;101792.66;7253069;19;153615;-57
2023/01/05 10:29:31;;;;;;;;;;;;;;;17.31;58.14;101800.19;7253562;19;154145;-57
2023/01/05 10:32:04;;;;;;;;;;;;;;;17.31;57.99;101794.63;7256520;19;153852;-57
2023/01/05 10:34:33;;;;;;;;;;;;;;;17.31;58.12;101803.00;7251330;19;153797;-57
2023/01/05 10:37:03;;;;;;;;;;;;;;;17.32;58.17;101795.47;7248184;19;152979;-58
2023/01/05 10:39:35;;;;;;;;;;;;;;;17.31;58.12;101794.63;7253208;19;154960;-57
2023/01/05 10:42:07;;;;;;;;;;;;;;;17.30;58.08;101792.97;7250838;19;153075;-58
2023/01/05 10:44:38;;;;;;;;;;;;;;;17.30;58.08;101798.53;7251207;19;154525;-58
2023/01/05 10:47:08;;;;;;;;;;;;;;;17.30;58.26;101798.53;7249906;19;155383;-58
2023/01/05 10:49:37;;;;;;;;;;;;;;;17.30;58.22;101797.69;7251197;19;152367;-57
2023/01/05 10:52:05;;;;;;;;;;;;;;;17.29;58.07;101799.66;7248844;19;154056;-58
2023/01/05 10:54:35;;;;;;;;;;;;;;;17.28;58.23;101803.53;7255676;19;154804;-58
2023/01/05 10:57:05;;;;;;;;;;;;;;;17.28;58.20;101789.56;7248133;19;153782;-58
2023/01/05 10:59:32;;;;;;;;;;;;;;;17.28;58.36;101795.16;7249885;19;154103;-57
2023/01/05 11:02:00;;;;;;;;;;;;;;;17.28;58.36;101795.16;7254551;19;154121;-58
2023/01/05 11:04:27;;;;;;;;;;;;;;;17.28;58.20;101791.53;7250318;19;154093;-58
2023/01/05 11:07:03;;;;;;;;;;;;;;;17.28;58.56;101785.94;7247996;19;153709;-58
2023/01/05 11:09:30;;;;;;;;;;;;;;;17.27;58.43;101779.50;7254365;19;155356;-58
2023/01/05 11:11:58;;;;;;;;;;;;;;;17.26;58.14;101786.19;7250230;19;153565;-58
2023/01/05 11:14:27;;;;;;;;;;;;;;;17.27;58.32;101779.50;7248989;19;154033;-58
2023/01/05 11:17:01;;;;;;;;;;;;;;;17.28;58.61;101769.19;7257512;19;154860;-58
2023/01/05 11:19:31;;;;;;;;;;;;;;;17.27;58.32;101770.28;7249878;19;153509;-58
2023/01/05 11:21:58;;;;;;;;;;;;;;;17.26;58.38;101766.63;7249897;19;153290;-58
2023/01/05 11:24:28;;;;;;;;;;;;;;;17.26;58.69;101766.63;7253786;19;153757;-58
2023/01/05 11:27:00;;;;;;;;;;;;;;;17.26;58.32;101749.06;7251857;19;154989;-58
2023/01/05 11:29:27;;;;;;;;;;;;;;;17.25;58.41;101759.41;7252552;19;153297;-58
2023/01/05 11:31:56;;;;;;;;;;;;;;;17.24;58.77;101754.06;7251807;19;153455;-57
2023/01/05 11:34:23;;;;;;;;;;;;;;;17.24;58.33;101754.06;7250954;19;153639;-58
2023/01/05 11:36:52;;;;;;;;;;;;;;;17.24;58.63;101757.72;7245593;19;154290;-57
2023/01/05 11:39:24;;;;;;;;;;;;;;;17.22;58.67;101750.69;7254840;19;154747;-58
2023/01/05 11:42:03;;;;;;;;;;;;;;;17.22;58.81;101751.53;7247501;19;154679;-57
2023/01/05 11:44:31;;;;;;;;;;;;;;;17.21;58.73;101749.88;7251258;19;153316;-57
2023/01/05 11:46:58;;;;;;;;;;;;;;;17.22;58.45;101750.69;7249360;19;154383;-58
2023/01/05 11:49:25;;;;;;;;;;;;;;;17.20;58.58;101737.00;7250425;19;153223;-58
2023/01/05 11:51:52;;;;;;;;;;;;;;;17.20;58.80;101737.00;7246429;19;154380;-58
2023/01/05 11:54:22;;;;;;;;;;;;;;;17.20;58.59;101736.16;7249331;19;154401;-58
2023/01/05 11:57:05;;;;;;;;;;;;;;;17.19;58.51;101746.50;7249513;19;153781;-58
2023/01/05 11:59:36;;;;;;;;;;;;;;;17.18;58.86;101732.78;7249365;19;155576;-58
2023/01/05 12:02:21;;;;;;;;;;;;;;;17.16;58.94;101727.50;7257656;19;154632;-57
2023/01/05 12:04:49;;;;;;;;;;;;;;;17.17;58.68;101731.94;7245452;19;155485;-58
2023/01/05 12:07:25;;;;;;;;;;;;;;;17.16;59.00;101721.91;7247356;19;154144;-58
2023/01/05 12:09:57;;;;;;;;;;;;;;;17.15;58.72;101723.00;7249409;19;153559;-58
2023/01/05 12:12:26;;;;;;;;;;;;;;;17.15;59.14;101724.94;7248077;19;153068;-58
2023/01/05 12:14:56;;;;;;;;;;;;;;;17.15;58.93;101716.56;7249021;19;154229;-58
2023/01/05 12:17:26;;;;;;;;;;;;;;;17.14;58.86;101712.94;7250660;19;154439;-58
2023/01/05 12:19:58;;;;;;;;;;;;;;;17.14;59.29;101706.50;7251319;19;154094;-58
2023/01/05 12:22:28;;;;;;;;;;;;;;;17.13;59.07;101705.66;7245627;19;153796;-57
2023/01/05 12:25:01;;;;;;;;;;;;;;;17.14;59.22;101718.53;7258580;19;153561;-58
2023/01/05 12:27:36;;;;;;;;;;;;;;;17.13;59.18;101702.03;7255977;19;155568;-58
2023/01/05 12:30:06;;;;;;;;;;;;;;;17.12;59.20;101701.22;7255119;19;153829;-58
2023/01/05 12:32:54;;;;;;;;;;;;;;;17.12;59.23;101703.16;7255755;19;154846;-58
2023/01/05 12:35:44;;;;;;;;;;;;;;;17.11;58.84;101702.31;7253057;19;153662;-57
2023/01/05 12:38:14;;;;;;;;;;;;;;;17.12;58.94;101690.03;7251980;19;154312;-57
2023/01/05 12:40:41;;;;;;;;;;;;;;;17.11;59.06;101707.06;7254647;19;152536;-57
2023/01/05 12:43:10;;;;;;;;;;;;;;;17.10;59.06;101689.44;7256534;19;154861;-58
2023/01/05 12:45:38;;;;;;;;;;;;;;;17.11;58.95;101685.56;7261951;19;154034;-58
2023/01/05 12:48:08;;;;;;;;;;;;;;;17.11;59.00;101687.50;7251532;19;155440;-58
2023/01/05 12:50:41;;;;;;;;;;;;;;;17.09;59.27;101687.75;7254274;19;153266;-58
2023/01/05 12:53:10;;;;;;;;;;;;;;;17.10;59.37;101683.03;7253763;19;154122;-58
2023/01/05 12:55:41;;;;;;;;;;;;;;;17.10;59.35;101685.81;7253997;19;153378;-58
2023/01/05 12:58:12;;;;;;;;;;;;;;;17.09;58.97;101675.75;7253056;19;152591;-57
2023/01/05 13:00:44;;;;;;;;;;;;;;;17.08;58.96;101674.91;7253514;19;153828;-58
2023/01/05 13:03:18;;;;;;;;;;;;;;;17.09;59.32;101667.38;7253223;19;154761;-58
2023/01/05 13:05:50;;;;;;;;;;;;;;;17.09;59.13;101664.59;7253168;19;153220;-58
2023/01/05 13:08:21;;;;;;;;;;;;;;;17.07;59.04;101653.72;7258397;19;153731;-58
2023/01/05 13:10:51;;;;;;;;;;;;;;;17.08;59.10;101660.13;7252784;19;152784;-58
2023/01/05 13:13:22;;;;;;;;;;;;;;;17.06;59.36;101665.13;7252883;19;153747;-58